sensor_id;sensor_type;location;lat;lon;timestamp;P1;durP1;ratioP1;P2;durP2;ratioP2
30249;SDS011;17064;47.974;13.826;2023-07-31T00:03:01;5.55;;;2.88;;
30249;SDS011;17064;47.974;13.826;2023-07-31T00:08:02;3.55;;;2.05;;
30249;SDS011;17064;47.974;13.826;2023-07-31T00:13:02;2.35;;;2.15;;
30249;SDS011;17064;47.974;13.826;2023-07-31T00:18:03;3.83;;;2.10;;
30249;SDS011;17064;47.974;13.826;2023-07-31T00:23:04;4.63;;;4.22;;
30249;SDS011;17064;47.974;13.826;2023-07-31T00:28:04;2.45;;;1.85;;
30249;SDS011;17064;47.974;13.826;2023-07-31T00:33:05;2.67;;;2.45;;
30249;SDS011;17064;47.974;13.826;2023-07-31T00:38:06;4.20;;;3.80;;
30249;SDS011;17064;47.974;13.826;2023-07-31T00:43:06;5.32;;;2.83;;
30249;SDS011;17064;47.974;13.826;2023-07-31T00:48:07;2.60;;;1.63;;
30249;SDS011;17064;47.974;13.826;2023-07-31T00:53:08;2.60;;;1.98;;
30249;SDS011;17064;47.974;13.826;2023-07-31T00:58:09;3.55;;;3.25;;
30249;SDS011;17064;47.974;13.826;2023-07-31T01:03:09;7.05;;;4.63;;
30249;SDS011;17064;47.974;13.826;2023-07-31T01:13:15;6.57;;;5.88;;
30249;SDS011;17064;47.974;13.826;2023-07-31T01:18:17;6.53;;;4.90;;
30249;SDS011;17064;47.974;13.826;2023-07-31T01:23:29;4.13;;;3.83;;
30249;SDS011;17064;47.974;13.826;2023-07-31T01:28:43;4.10;;;3.08;;
30249;SDS011;17064;47.974;13.826;2023-07-31T01:33:57;6.32;;;3.33;;
30249;SDS011;17064;47.974;13.826;2023-07-31T01:39:03;5.93;;;5.43;;
30249;SDS011;17064;47.974;13.826;2023-07-31T01:44:06;4.07;;;3.47;;
30249;SDS011;17064;47.974;13.826;2023-07-31T01:49:07;4.32;;;4.00;;
30249;SDS011;17064;47.974;13.826;2023-07-31T01:54:07;3.28;;;3.03;;
30249;SDS011;17064;47.974;13.826;2023-07-31T01:59:08;4.63;;;3.28;;
30249;SDS011;17064;47.974;13.826;2023-07-31T02:04:09;3.88;;;2.67;;
30249;SDS011;17064;47.974;13.826;2023-07-31T02:09:09;2.35;;;2.15;;
30249;SDS011;17064;47.974;13.826;2023-07-31T02:14:10;4.93;;;2.90;;
30249;SDS011;17064;47.974;13.826;2023-07-31T02:19:11;2.67;;;2.17;;
30249;SDS011;17064;47.974;13.826;2023-07-31T02:24:11;2.30;;;2.10;;
30249;SDS011;17064;47.974;13.826;2023-07-31T02:29:12;3.00;;;2.67;;
30249;SDS011;17064;47.974;13.826;2023-07-31T02:34:13;4.45;;;2.38;;
30249;SDS011;17064;47.974;13.826;2023-07-31T02:39:13;6.93;;;3.78;;
30249;SDS011;17064;47.974;13.826;2023-07-31T02:44:14;2.88;;;1.98;;
30249;SDS011;17064;47.974;13.826;2023-07-31T02:49:15;2.85;;;2.63;;
30249;SDS011;17064;47.974;13.826;2023-07-31T02:54:15;2.83;;;2.63;;
30249;SDS011;17064;47.974;13.826;2023-07-31T02:59:16;4.22;;;3.83;;
30249;SDS011;17064;47.974;13.826;2023-07-31T03:04:17;5.80;;;3.47;;
30249;SDS011;17064;47.974;13.826;2023-07-31T03:09:18;3.53;;;2.35;;
30249;SDS011;17064;47.974;13.826;2023-07-31T03:14:18;3.17;;;2.53;;
30249;SDS011;17064;47.974;13.826;2023-07-31T03:19:19;4.63;;;2.97;;
30249;SDS011;17064;47.974;13.826;2023-07-31T03:24:20;3.67;;;3.38;;
30249;SDS011;17064;47.974;13.826;2023-07-31T03:29:20;4.80;;;4.40;;
30249;SDS011;17064;47.974;13.826;2023-07-31T03:34:21;5.05;;;3.83;;
30249;SDS011;17064;47.974;13.826;2023-07-31T03:39:22;5.45;;;3.38;;
30249;SDS011;17064;47.974;13.826;2023-07-31T03:44:23;3.90;;;2.88;;
30249;SDS011;17064;47.974;13.826;2023-07-31T03:49:23;2.75;;;2.45;;
30249;SDS011;17064;47.974;13.826;2023-07-31T03:54:24;2.58;;;2.35;;
30249;SDS011;17064;47.974;13.826;2023-07-31T03:59:25;5.05;;;2.83;;
30249;SDS011;17064;47.974;13.826;2023-07-31T04:04:26;5.50;;;3.70;;
30249;SDS011;17064;47.974;13.826;2023-07-31T04:09:26;3.90;;;3.42;;
30249;SDS011;17064;47.974;13.826;2023-07-31T04:14:27;5.03;;;3.50;;
30249;SDS011;17064;47.974;13.826;2023-07-31T04:19:27;12.00;;;4.95;;
30249;SDS011;17064;47.974;13.826;2023-07-31T04:24:28;5.22;;;4.63;;
30249;SDS011;17064;47.974;13.826;2023-07-31T04:29:29;4.05;;;3.08;;
30249;SDS011;17064;47.974;13.826;2023-07-31T04:34:29;4.60;;;2.75;;
30249;SDS011;17064;47.974;13.826;2023-07-31T04:39:30;6.82;;;3.53;;
30249;SDS011;17064;47.974;13.826;2023-07-31T04:44:31;4.60;;;3.88;;
30249;SDS011;17064;47.974;13.826;2023-07-31T04:49:32;3.63;;;2.92;;
30249;SDS011;17064;47.974;13.826;2023-07-31T04:54:32;4.22;;;3.75;;
30249;SDS011;17064;47.974;13.826;2023-07-31T04:59:33;3.00;;;2.35;;
30249;SDS011;17064;47.974;13.826;2023-07-31T05:04:34;2.25;;;1.95;;
30249;SDS011;17064;47.974;13.826;2023-07-31T05:09:35;3.17;;;2.25;;
30249;SDS011;17064;47.974;13.826;2023-07-31T05:14:35;4.68;;;4.20;;
30249;SDS011;17064;47.974;13.826;2023-07-31T05:19:36;3.25;;;2.88;;
30249;SDS011;17064;47.974;13.826;2023-07-31T05:24:37;17.40;;;3.33;;
30249;SDS011;17064;47.974;13.826;2023-07-31T05:29:37;4.63;;;4.22;;
30249;SDS011;17064;47.974;13.826;2023-07-31T05:34:38;7.47;;;3.28;;
30249;SDS011;17064;47.974;13.826;2023-07-31T05:39:39;2.85;;;2.65;;
30249;SDS011;17064;47.974;13.826;2023-07-31T05:44:40;3.55;;;2.72;;
30249;SDS011;17064;47.974;13.826;2023-07-31T05:49:40;4.35;;;2.05;;
30249;SDS011;17064;47.974;13.826;2023-07-31T05:54:42;4.55;;;2.83;;
30249;SDS011;17064;47.974;13.826;2023-07-31T05:59:42;6.18;;;3.28;;
30249;SDS011;17064;47.974;13.826;2023-07-31T06:04:43;5.13;;;4.15;;
30249;SDS011;17064;47.974;13.826;2023-07-31T06:09:44;5.30;;;3.70;;
30249;SDS011;17064;47.974;13.826;2023-07-31T06:14:44;7.50;;;3.72;;
30249;SDS011;17064;47.974;13.826;2023-07-31T06:19:45;4.97;;;2.25;;
30249;SDS011;17064;47.974;13.826;2023-07-31T06:24:46;8.32;;;3.15;;
30249;SDS011;17064;47.974;13.826;2023-07-31T06:29:49;3.15;;;2.05;;
30249;SDS011;17064;47.974;13.826;2023-07-31T06:34:50;4.65;;;3.50;;
30249;SDS011;17064;47.974;13.826;2023-07-31T06:39:51;5.65;;;3.25;;
30249;SDS011;17064;47.974;13.826;2023-07-31T06:44:51;4.03;;;2.58;;
30249;SDS011;17064;47.974;13.826;2023-07-31T06:49:52;7.45;;;5.00;;
30249;SDS011;17064;47.974;13.826;2023-07-31T06:55:03;4.03;;;3.55;;
30249;SDS011;17064;47.974;13.826;2023-07-31T07:00:16;5.07;;;3.50;;
30249;SDS011;17064;47.974;13.826;2023-07-31T07:05:17;2.55;;;2.35;;
30249;SDS011;17064;47.974;13.826;2023-07-31T07:10:18;3.33;;;2.97;;
30249;SDS011;17064;47.974;13.826;2023-07-31T07:15:19;4.43;;;3.28;;
30249;SDS011;17064;47.974;13.826;2023-07-31T07:20:20;4.82;;;2.85;;
30249;SDS011;17064;47.974;13.826;2023-07-31T07:25:21;3.63;;;1.80;;
30249;SDS011;17064;47.974;13.826;2023-07-31T07:30:21;4.10;;;2.78;;
30249;SDS011;17064;47.974;13.826;2023-07-31T07:35:24;2.30;;;2.10;;
30249;SDS011;17064;47.974;13.826;2023-07-31T07:40:25;4.65;;;1.95;;
30249;SDS011;17064;47.974;13.826;2023-07-31T07:45:26;1.92;;;1.52;;
30249;SDS011;17064;47.974;13.826;2023-07-31T07:50:27;3.28;;;1.98;;
30249;SDS011;17064;47.974;13.826;2023-07-31T07:55:27;2.28;;;2.08;;
30249;SDS011;17064;47.974;13.826;2023-07-31T08:00:28;2.88;;;1.50;;
30249;SDS011;17064;47.974;13.826;2023-07-31T08:05:29;2.03;;;1.20;;
30249;SDS011;17064;47.974;13.826;2023-07-31T08:10:30;3.65;;;1.98;;
30249;SDS011;17064;47.974;13.826;2023-07-31T08:15:31;1.50;;;0.98;;
30249;SDS011;17064;47.974;13.826;2023-07-31T08:20:31;3.30;;;1.42;;
30249;SDS011;17064;47.974;13.826;2023-07-31T08:25:34;2.72;;;1.60;;
30249;SDS011;17064;47.974;13.826;2023-07-31T08:30:35;1.42;;;1.30;;
30249;SDS011;17064;47.974;13.826;2023-07-31T08:35:36;2.88;;;1.25;;
30249;SDS011;17064;47.974;13.826;2023-07-31T08:40:37;8.55;;;1.63;;
30249;SDS011;17064;47.974;13.826;2023-07-31T08:45:38;1.80;;;1.38;;
30249;SDS011;17064;47.974;13.826;2023-07-31T08:50:42;2.85;;;1.17;;
30249;SDS011;17064;47.974;13.826;2023-07-31T08:55:43;2.88;;;1.38;;
30249;SDS011;17064;47.974;13.826;2023-07-31T09:00:45;3.40;;;1.50;;
30249;SDS011;17064;47.974;13.826;2023-07-31T09:10:48;1.40;;;1.15;;
30249;SDS011;17064;47.974;13.826;2023-07-31T09:15:51;1.45;;;1.35;;
30249;SDS011;17064;47.974;13.826;2023-07-31T09:21:05;1.23;;;0.77;;
30249;SDS011;17064;47.974;13.826;2023-07-31T09:26:07;2.50;;;1.25;;
30249;SDS011;17064;47.974;13.826;2023-07-31T09:31:08;3.25;;;1.73;;
30249;SDS011;17064;47.974;13.826;2023-07-31T09:36:08;2.28;;;1.55;;
30249;SDS011;17064;47.974;13.826;2023-07-31T09:41:09;5.95;;;1.52;;
30249;SDS011;17064;47.974;13.826;2023-07-31T09:46:14;3.17;;;1.83;;
30249;SDS011;17064;47.974;13.826;2023-07-31T09:51:15;2.40;;;1.48;;
30249;SDS011;17064;47.974;13.826;2023-07-31T09:56:15;1.70;;;1.10;;
30249;SDS011;17064;47.974;13.826;2023-07-31T10:01:18;4.32;;;1.60;;
30249;SDS011;17064;47.974;13.826;2023-07-31T10:06:19;3.22;;;1.60;;
30249;SDS011;17064;47.974;13.826;2023-07-31T10:11:20;2.88;;;1.38;;
30249;SDS011;17064;47.974;13.826;2023-07-31T10:16:22;5.10;;;1.60;;
30249;SDS011;17064;47.974;13.826;2023-07-31T10:21:23;4.43;;;1.40;;
30249;SDS011;17064;47.974;13.826;2023-07-31T10:26:23;4.15;;;1.40;;
30249;SDS011;17064;47.974;13.826;2023-07-31T10:31:26;1.45;;;1.00;;
30249;SDS011;17064;47.974;13.826;2023-07-31T10:36:29;3.03;;;1.02;;
30249;SDS011;17064;47.974;13.826;2023-07-31T10:41:30;2.38;;;1.27;;
30249;SDS011;17064;47.974;13.826;2023-07-31T10:46:32;2.40;;;1.20;;
30249;SDS011;17064;47.974;13.826;2023-07-31T10:51:36;3.70;;;1.27;;
30249;SDS011;17064;47.974;13.826;2023-07-31T10:56:37;3.33;;;1.60;;
30249;SDS011;17064;47.974;13.826;2023-07-31T11:01:54;1.25;;;0.98;;
30249;SDS011;17064;47.974;13.826;2023-07-31T11:07:02;3.38;;;1.00;;
30249;SDS011;17064;47.974;13.826;2023-07-31T11:12:06;2.50;;;1.42;;
30249;SDS011;17064;47.974;13.826;2023-07-31T11:17:07;2.20;;;1.30;;
30249;SDS011;17064;47.974;13.826;2023-07-31T11:22:08;1.52;;;1.42;;
30249;SDS011;17064;47.974;13.826;2023-07-31T11:27:09;1.75;;;1.45;;
30249;SDS011;17064;47.974;13.826;2023-07-31T11:32:15;4.60;;;1.52;;
30249;SDS011;17064;47.974;13.826;2023-07-31T11:37:17;2.67;;;1.42;;
30249;SDS011;17064;47.974;13.826;2023-07-31T11:42:18;2.83;;;1.77;;
30249;SDS011;17064;47.974;13.826;2023-07-31T11:47:19;2.95;;;1.20;;
30249;SDS011;17064;47.974;13.826;2023-07-31T11:52:20;2.38;;;1.58;;
30249;SDS011;17064;47.974;13.826;2023-07-31T11:57:20;1.88;;;1.45;;
30249;SDS011;17064;47.974;13.826;2023-07-31T12:02:22;1.85;;;1.20;;
30249;SDS011;17064;47.974;13.826;2023-07-31T12:07:24;3.08;;;1.55;;
30249;SDS011;17064;47.974;13.826;2023-07-31T12:12:25;2.63;;;1.83;;
30249;SDS011;17064;47.974;13.826;2023-07-31T12:17:26;3.22;;;1.60;;
30249;SDS011;17064;47.974;13.826;2023-07-31T12:22:27;3.88;;;1.38;;
30249;SDS011;17064;47.974;13.826;2023-07-31T12:27:32;1.50;;;1.40;;
30249;SDS011;17064;47.974;13.826;2023-07-31T12:32:34;1.77;;;1.40;;
30249;SDS011;17064;47.974;13.826;2023-07-31T12:37:34;2.88;;;1.50;;
30249;SDS011;17064;47.974;13.826;2023-07-31T12:42:35;2.78;;;1.42;;
30249;SDS011;17064;47.974;13.826;2023-07-31T12:47:36;2.35;;;1.27;;
30249;SDS011;17064;47.974;13.826;2023-07-31T12:52:36;3.88;;;1.63;;
30249;SDS011;17064;47.974;13.826;2023-07-31T12:57:37;5.57;;;1.48;;
30249;SDS011;17064;47.974;13.826;2023-07-31T13:07:40;2.03;;;1.27;;
30249;SDS011;17064;47.974;13.826;2023-07-31T13:12:41;3.35;;;1.60;;
30249;SDS011;17064;47.974;13.826;2023-07-31T13:17:42;3.80;;;1.27;;
30249;SDS011;17064;47.974;13.826;2023-07-31T13:22:42;2.22;;;1.50;;
30249;SDS011;17064;47.974;13.826;2023-07-31T13:27:43;2.28;;;1.40;;
30249;SDS011;17064;47.974;13.826;2023-07-31T13:32:44;1.80;;;1.42;;
30249;SDS011;17064;47.974;13.826;2023-07-31T13:37:45;2.85;;;1.63;;
30249;SDS011;17064;47.974;13.826;2023-07-31T13:47:49;1.65;;;1.40;;
30249;SDS011;17064;47.974;13.826;2023-07-31T13:52:51;4.47;;;2.00;;
30249;SDS011;17064;47.974;13.826;2023-07-31T13:57:51;1.60;;;1.45;;
30249;SDS011;17064;47.974;13.826;2023-07-31T14:02:53;1.30;;;1.10;;
30249;SDS011;17064;47.974;13.826;2023-07-31T14:07:54;2.20;;;1.60;;
30249;SDS011;17064;47.974;13.826;2023-07-31T14:12:55;4.28;;;1.80;;
30249;SDS011;17064;47.974;13.826;2023-07-31T14:17:55;2.53;;;1.77;;
30249;SDS011;17064;47.974;13.826;2023-07-31T14:22:56;3.13;;;1.70;;
30249;SDS011;17064;47.974;13.826;2023-07-31T14:27:57;1.88;;;1.35;;
30249;SDS011;17064;47.974;13.826;2023-07-31T14:32:57;3.08;;;1.45;;
30249;SDS011;17064;47.974;13.826;2023-07-31T14:38:00;3.33;;;1.63;;
30249;SDS011;17064;47.974;13.826;2023-07-31T14:43:01;2.25;;;1.88;;
30249;SDS011;17064;47.974;13.826;2023-07-31T14:48:02;3.58;;;2.58;;
30249;SDS011;17064;47.974;13.826;2023-07-31T14:53:03;1.50;;;1.40;;
30249;SDS011;17064;47.974;13.826;2023-07-31T14:58:04;2.17;;;1.50;;
30249;SDS011;17064;47.974;13.826;2023-07-31T15:03:04;4.25;;;2.45;;
30249;SDS011;17064;47.974;13.826;2023-07-31T15:08:05;3.60;;;1.83;;
30249;SDS011;17064;47.974;13.826;2023-07-31T15:13:06;9.68;;;3.35;;
30249;SDS011;17064;47.974;13.826;2023-07-31T15:18:06;2.22;;;2.00;;
30249;SDS011;17064;47.974;13.826;2023-07-31T15:23:07;2.85;;;1.33;;
30249;SDS011;17064;47.974;13.826;2023-07-31T15:28:08;3.35;;;1.70;;
30249;SDS011;17064;47.974;13.826;2023-07-31T15:33:09;1.88;;;1.40;;
30249;SDS011;17064;47.974;13.826;2023-07-31T15:38:10;2.38;;;1.40;;
30249;SDS011;17064;47.974;13.826;2023-07-31T15:43:10;3.38;;;1.42;;
30249;SDS011;17064;47.974;13.826;2023-07-31T15:48:11;2.17;;;1.30;;
30249;SDS011;17064;47.974;13.826;2023-07-31T15:53:12;4.43;;;1.63;;
30249;SDS011;17064;47.974;13.826;2023-07-31T15:58:13;1.92;;;1.42;;
30249;SDS011;17064;47.974;13.826;2023-07-31T16:03:13;2.13;;;1.50;;
30249;SDS011;17064;47.974;13.826;2023-07-31T16:08:14;1.92;;;1.10;;
30249;SDS011;17064;47.974;13.826;2023-07-31T16:13:15;1.88;;;1.20;;
30249;SDS011;17064;47.974;13.826;2023-07-31T16:18:15;2.47;;;1.25;;
30249;SDS011;17064;47.974;13.826;2023-07-31T16:23:16;3.17;;;1.70;;
30249;SDS011;17064;47.974;13.826;2023-07-31T16:28:17;3.38;;;1.58;;
30249;SDS011;17064;47.974;13.826;2023-07-31T16:33:17;2.90;;;1.50;;
30249;SDS011;17064;47.974;13.826;2023-07-31T16:38:18;2.83;;;1.30;;
30249;SDS011;17064;47.974;13.826;2023-07-31T16:43:19;2.28;;;1.50;;
30249;SDS011;17064;47.974;13.826;2023-07-31T16:48:19;2.10;;;1.40;;
30249;SDS011;17064;47.974;13.826;2023-07-31T16:53:20;5.07;;;2.20;;
30249;SDS011;17064;47.974;13.826;2023-07-31T16:58:21;2.28;;;1.50;;
30249;SDS011;17064;47.974;13.826;2023-07-31T17:03:21;3.00;;;2.13;;
30249;SDS011;17064;47.974;13.826;2023-07-31T17:08:22;2.85;;;1.98;;
30249;SDS011;17064;47.974;13.826;2023-07-31T17:13:23;5.28;;;1.55;;
30249;SDS011;17064;47.974;13.826;2023-07-31T17:18:24;1.77;;;1.35;;
30249;SDS011;17064;47.974;13.826;2023-07-31T17:23:26;6.15;;;1.60;;
30249;SDS011;17064;47.974;13.826;2023-07-31T17:28:26;3.20;;;1.73;;
30249;SDS011;17064;47.974;13.826;2023-07-31T17:33:27;2.55;;;1.58;;
30249;SDS011;17064;47.974;13.826;2023-07-31T17:38:28;2.97;;;2.08;;
30249;SDS011;17064;47.974;13.826;2023-07-31T17:43:30;6.43;;;1.57;;
30249;SDS011;17064;47.974;13.826;2023-07-31T17:48:31;3.40;;;1.40;;
30249;SDS011;17064;47.974;13.826;2023-07-31T17:53:32;4.55;;;1.52;;
30249;SDS011;17064;47.974;13.826;2023-07-31T17:58:34;3.42;;;1.70;;
30249;SDS011;17064;47.974;13.826;2023-07-31T18:03:35;3.15;;;1.48;;
30249;SDS011;17064;47.974;13.826;2023-07-31T18:08:35;3.60;;;1.70;;
30249;SDS011;17064;47.974;13.826;2023-07-31T18:13:36;1.90;;;1.60;;
30249;SDS011;17064;47.974;13.826;2023-07-31T18:18:40;1.27;;;1.17;;
30249;SDS011;17064;47.974;13.826;2023-07-31T18:23:42;2.63;;;1.40;;
30249;SDS011;17064;47.974;13.826;2023-07-31T18:28:43;1.90;;;1.33;;
30249;SDS011;17064;47.974;13.826;2023-07-31T18:33:44;1.70;;;1.35;;
30249;SDS011;17064;47.974;13.826;2023-07-31T18:38:45;1.98;;;1.50;;
30249;SDS011;17064;47.974;13.826;2023-07-31T18:43:46;4.80;;;1.73;;
30249;SDS011;17064;47.974;13.826;2023-07-31T18:48:47;5.28;;;2.03;;
30249;SDS011;17064;47.974;13.826;2023-07-31T18:53:48;2.45;;;2.08;;
30249;SDS011;17064;47.974;13.826;2023-07-31T18:58:49;2.50;;;1.83;;
30249;SDS011;17064;47.974;13.826;2023-07-31T19:03:51;3.47;;;2.00;;
30249;SDS011;17064;47.974;13.826;2023-07-31T19:08:52;3.17;;;1.63;;
30249;SDS011;17064;47.974;13.826;2023-07-31T19:13:54;2.80;;;1.53;;
30249;SDS011;17064;47.974;13.826;2023-07-31T19:18:56;1.60;;;1.50;;
30249;SDS011;17064;47.974;13.826;2023-07-31T19:23:59;2.83;;;1.80;;
30249;SDS011;17064;47.974;13.826;2023-07-31T19:29:00;4.20;;;2.33;;
30249;SDS011;17064;47.974;13.826;2023-07-31T19:34:01;3.58;;;1.92;;
30249;SDS011;17064;47.974;13.826;2023-07-31T19:39:02;4.53;;;2.17;;
30249;SDS011;17064;47.974;13.826;2023-07-31T19:44:04;2.90;;;2.15;;
30249;SDS011;17064;47.974;13.826;2023-07-31T19:49:05;2.78;;;2.55;;
30249;SDS011;17064;47.974;13.826;2023-07-31T19:54:06;3.10;;;2.72;;
30249;SDS011;17064;47.974;13.826;2023-07-31T19:59:07;1.60;;;1.50;;
30249;SDS011;17064;47.974;13.826;2023-07-31T20:04:08;2.85;;;1.90;;
30249;SDS011;17064;47.974;13.826;2023-07-31T20:09:10;2.47;;;1.90;;
30249;SDS011;17064;47.974;13.826;2023-07-31T20:14:11;5.20;;;2.42;;
30249;SDS011;17064;47.974;13.826;2023-07-31T20:19:12;3.03;;;2.72;;
30249;SDS011;17064;47.974;13.826;2023-07-31T20:24:13;4.65;;;2.75;;
30249;SDS011;17064;47.974;13.826;2023-07-31T20:29:15;3.70;;;2.30;;
30249;SDS011;17064;47.974;13.826;2023-07-31T20:34:16;2.45;;;2.15;;
30249;SDS011;17064;47.974;13.826;2023-07-31T20:39:17;3.30;;;2.45;;
30249;SDS011;17064;47.974;13.826;2023-07-31T20:44:19;4.22;;;2.65;;
30249;SDS011;17064;47.974;13.826;2023-07-31T20:49:20;3.47;;;2.50;;
30249;SDS011;17064;47.974;13.826;2023-07-31T20:54:21;5.68;;;2.85;;
30249;SDS011;17064;47.974;13.826;2023-07-31T20:59:21;4.28;;;2.38;;
30249;SDS011;17064;47.974;13.826;2023-07-31T21:04:22;3.78;;;2.47;;
30249;SDS011;17064;47.974;13.826;2023-07-31T21:09:26;5.05;;;2.35;;
30249;SDS011;17064;47.974;13.826;2023-07-31T21:14:27;3.15;;;2.65;;
30249;SDS011;17064;47.974;13.826;2023-07-31T21:19:27;3.75;;;2.03;;
30249;SDS011;17064;47.974;13.826;2023-07-31T21:24:28;2.53;;;2.33;;
30249;SDS011;17064;47.974;13.826;2023-07-31T21:29:29;2.88;;;2.58;;
30249;SDS011;17064;47.974;13.826;2023-07-31T21:34:29;4.05;;;2.33;;
30249;SDS011;17064;47.974;13.826;2023-07-31T21:39:30;4.15;;;2.10;;
30249;SDS011;17064;47.974;13.826;2023-07-31T21:44:31;3.45;;;2.03;;
30249;SDS011;17064;47.974;13.826;2023-07-31T21:49:32;3.33;;;2.25;;
30249;SDS011;17064;47.974;13.826;2023-07-31T21:54:32;2.25;;;1.85;;
30249;SDS011;17064;47.974;13.826;2023-07-31T21:59:33;4.20;;;2.65;;
30249;SDS011;17064;47.974;13.826;2023-07-31T22:04:35;8.70;;;3.05;;
30249;SDS011;17064;47.974;13.826;2023-07-31T22:09:38;2.80;;;1.85;;
30249;SDS011;17064;47.974;13.826;2023-07-31T22:14:39;2.65;;;2.45;;
30249;SDS011;17064;47.974;13.826;2023-07-31T22:19:39;3.25;;;2.03;;
30249;SDS011;17064;47.974;13.826;2023-07-31T22:24:40;2.72;;;2.28;;
30249;SDS011;17064;47.974;13.826;2023-07-31T22:29:41;2.58;;;1.85;;
30249;SDS011;17064;47.974;13.826;2023-07-31T22:34:42;6.07;;;2.00;;
30249;SDS011;17064;47.974;13.826;2023-07-31T22:39:43;3.03;;;2.13;;
30249;SDS011;17064;47.974;13.826;2023-07-31T22:44:44;2.85;;;1.73;;
30249;SDS011;17064;47.974;13.826;2023-07-31T22:49:45;3.03;;;2.15;;
30249;SDS011;17064;47.974;13.826;2023-07-31T22:54:45;5.45;;;1.92;;
30249;SDS011;17064;47.974;13.826;2023-07-31T22:59:46;2.00;;;1.65;;
30249;SDS011;17064;47.974;13.826;2023-07-31T23:04:47;3.15;;;1.83;;
30249;SDS011;17064;47.974;13.826;2023-07-31T23:09:48;4.10;;;2.38;;
30249;SDS011;17064;47.974;13.826;2023-07-31T23:14:51;4.38;;;2.17;;
30249;SDS011;17064;47.974;13.826;2023-07-31T23:19:52;2.38;;;1.67;;
30249;SDS011;17064;47.974;13.826;2023-07-31T23:24:53;3.72;;;2.00;;
30249;SDS011;17064;47.974;13.826;2023-07-31T23:29:53;2.17;;;1.98;;
30249;SDS011;17064;47.974;13.826;2023-07-31T23:34:54;3.75;;;2.75;;
30249;SDS011;17064;47.974;13.826;2023-07-31T23:39:55;3.28;;;2.60;;
30249;SDS011;17064;47.974;13.826;2023-07-31T23:44:56;3.10;;;2.85;;
30249;SDS011;17064;47.974;13.826;2023-07-31T23:49:57;3.28;;;2.65;;
30249;SDS011;17064;47.974;13.826;2023-07-31T23:54:57;5.88;;;2.80;;
30249;SDS011;17064;47.974;13.826;2023-07-31T23:59:58;3.15;;;1.98;;
